Main page
METAR-TAF:

METAR-TAF

Airports :

Nnamdi Azikiwe International Airport

Abuja, Nigeria

latitude: 9-00-24N, longitude: 7-15-47E, elevation: 342 m

Current weather observation

The report was made 1 hour and 5 minutes ago, at 13:00 UTC
Wind 5 kt from the West
Temperature 34°C
Humidity 50%
Pressure 1010 hPa
Visibility 10 km or more
no clouds below 1500 m and no cumulonimbus

METAR: DNAA 281300Z 26005KT CAVOK 34/22 Q1010 NOSIG

Time: 15:05 (14:05 UTC)

Forecast

The report was made 3 hours and 5 minutes ago, at 11:00 UTC
Forecast valid from 28 at 12 UTC to 29 at 18 UTC
Wind 4 kt from the West/Southwest
Visibility 10 km or more
no clouds below 1500 m and no cumulonimbus
Becoming
from 28 at 20 UTC to 28 at 22 UTC
Wind 10 kt from the East/Northeast

TAF: DNAA 281100Z 2812/2918 25004KT CAVOK BECMG 2820/2822 07010KT BECM

Weather observations and forecasts of more than 4000 airports (METAR and TAF reports).

The available stations are represented by yellow and red dots on the map.

Hover mouse over dot to see the name of the station.

Then click to see weather observations and forecasts.

To change the map : click on the green buttons with a black cross to zoom in, on the green button with a dash to zoom out, or on the green arrows for adjacent maps.


METAR-TAF: